createdAt,value
2022-11-19T00:02:05.445Z,35.85
2022-11-19T00:04:33.149Z,35.25
2022-11-19T00:07:00.771Z,35.53
2022-11-19T00:09:28.537Z,33.28
2022-11-19T00:12:14.695Z,32.78
2022-11-19T00:14:42.303Z,33.58
2022-11-19T00:17:09.867Z,31.98
2022-11-19T00:19:37.654Z,32.38
2022-11-19T00:22:05.607Z,32.20
2022-11-19T00:24:33.259Z,30.75
2022-11-19T00:27:00.768Z,31.27
2022-11-19T00:29:28.443Z,29.83
2022-11-19T00:31:55.974Z,31.83
2022-11-19T00:34:23.530Z,31.23
2022-11-19T00:36:51.370Z,31.75
2022-11-19T00:39:21.089Z,30.60
2022-11-19T00:41:48.989Z,30.65
2022-11-19T00:44:16.527Z,30.30
2022-11-19T00:46:43.997Z,30.98
2022-11-19T00:49:11.550Z,32.70
2022-11-19T00:51:39.109Z,31.35
2022-11-19T00:54:06.632Z,31.02
2022-11-19T00:56:34.377Z,28.58
2022-11-19T00:59:01.919Z,28.42
2022-11-19T01:01:29.490Z,30.48
2022-11-19T01:03:57.072Z,29.23
2022-11-19T01:06:25.565Z,29.42
2022-11-19T01:08:53.847Z,29.48
2022-11-19T01:11:22.787Z,29.98
2022-11-19T01:13:50.955Z,29.55
2022-11-19T01:16:18.497Z,30.30
2022-11-19T01:18:47.349Z,29.85
2022-11-19T01:21:15.551Z,30.98
2022-11-19T01:23:43.974Z,29.65
2022-11-19T01:26:12.152Z,29.70
2022-11-19T01:28:39.908Z,31.08
2022-11-19T01:31:08.562Z,31.15
2022-11-19T01:33:36.412Z,28.90
2022-11-19T01:36:05.738Z,30.17
2022-11-19T01:38:33.703Z,30.42
2022-11-19T01:41:01.444Z,29.67
2022-11-19T01:43:43.042Z,28.75
2022-11-19T01:46:11.776Z,29.85
2022-11-19T01:48:41.532Z,27.65
2022-11-19T01:51:09.039Z,28.40
2022-11-19T01:53:37.917Z,27.95
2022-11-19T01:56:07.427Z,27.13
2022-11-19T01:58:37.033Z,26.40
2022-11-19T02:01:04.774Z,26.58
2022-11-19T02:03:33.647Z,27.02
2022-11-19T02:06:02.718Z,25.05
2022-11-19T02:08:38.518Z,25.02
2022-11-19T02:11:24.771Z,25.30
2022-11-19T02:13:55.400Z,23.52
2022-11-19T02:16:58.684Z,23.48
2022-11-19T02:19:44.968Z,22.77
2022-11-19T02:22:26.102Z,24.25
2022-11-19T02:24:53.682Z,24.30
2022-11-19T02:27:40.691Z,25.23
2022-11-19T02:30:09.849Z,24.05
2022-11-19T02:32:41.341Z,23.90
2022-11-19T02:35:14.770Z,22.83
2022-11-19T02:37:48.068Z,23.00
2022-11-19T02:40:24.848Z,24.45
2022-11-19T02:42:55.091Z,24.50
2022-11-19T02:45:29.366Z,25.15
2022-11-19T02:48:32.010Z,24.65
2022-11-19T02:51:01.295Z,24.05
2022-11-19T02:53:29.001Z,23.05
2022-11-19T02:56:11.617Z,21.65
2022-11-19T02:59:04.214Z,22.55
2022-11-19T03:01:52.481Z,21.63
2022-11-19T03:04:32.099Z,21.95
2022-11-19T03:07:05.398Z,20.63
2022-11-19T03:09:34.482Z,21.63
2022-11-19T03:12:12.200Z,22.23
2022-11-19T03:15:01.714Z,20.50
2022-11-19T03:17:52.505Z,20.67
2022-11-19T03:20:31.164Z,20.83
2022-11-19T03:23:05.448Z,20.58
2022-11-19T03:25:38.899Z,20.02
2022-11-19T03:28:10.790Z,19.60
2022-11-19T03:30:39.271Z,20.67
2022-11-19T03:33:12.525Z,19.67
2022-11-19T03:35:42.865Z,19.38
2022-11-19T03:38:13.373Z,20.60
2022-11-19T03:40:42.008Z,21.08
2022-11-19T03:43:12.327Z,20.65
2022-11-19T03:45:41.402Z,19.95
2022-11-19T03:48:09.207Z,19.90
2022-11-19T03:50:45.565Z,20.83
2022-11-19T03:55:52.119Z,19.88
2022-11-19T03:58:19.633Z,20.10
2022-11-19T04:00:47.167Z,20.75
2022-11-19T04:03:14.748Z,20.05
2022-11-19T04:05:42.294Z,20.17
2022-11-19T04:08:09.800Z,20.80
2022-11-19T04:10:37.340Z,20.15
2022-11-19T04:13:04.937Z,19.25
2022-11-19T04:15:32.502Z,19.65
2022-11-19T04:18:00.010Z,19.92
2022-11-19T04:20:27.548Z,20.00
2022-11-19T04:22:55.103Z,18.67
2022-11-19T04:25:22.708Z,19.42
2022-11-19T04:27:52.370Z,20.45
2022-11-19T04:30:19.977Z,19.27
2022-11-19T04:32:47.517Z,18.17
2022-11-19T04:35:18.074Z,18.40
2022-11-19T04:37:45.664Z,18.40
2022-11-19T04:40:13.577Z,16.85
2022-11-19T04:42:41.194Z,17.52
2022-11-19T04:45:09.121Z,17.13
2022-11-19T04:47:37.486Z,15.57
2022-11-19T04:50:05.585Z,14.82
2022-11-19T04:52:37.651Z,13.45
2022-11-19T04:55:08.120Z,14.68
2022-11-19T04:57:35.650Z,14.75
2022-11-19T05:00:03.308Z,13.52
2022-11-19T05:02:30.824Z,13.45
2022-11-19T05:04:58.370Z,13.15
2022-11-19T05:07:25.997Z,13.55
2022-11-19T05:09:53.601Z,13.27
2022-11-19T05:12:21.178Z,13.90
2022-11-19T05:14:48.762Z,13.85
2022-11-19T05:17:16.429Z,13.88
2022-11-19T05:19:44.013Z,13.82
2022-11-19T05:22:12.021Z,13.93
2022-11-19T05:24:39.570Z,13.77
2022-11-19T05:27:07.141Z,13.68
2022-11-19T05:29:34.723Z,12.75
2022-11-19T05:32:02.372Z,12.70
2022-11-19T05:34:30.135Z,12.85
2022-11-19T05:36:57.861Z,12.23
2022-11-19T05:39:25.735Z,11.85
2022-11-19T05:41:53.649Z,12.05
2022-11-19T05:44:21.179Z,11.98
2022-11-19T05:46:48.705Z,10.80
2022-11-19T05:49:16.374Z,11.90
2022-11-19T05:51:44.021Z,11.77
2022-11-19T05:54:11.602Z,11.57
2022-11-19T05:56:39.152Z,11.88
2022-11-19T05:59:06.738Z,12.25
2022-11-19T06:01:34.540Z,12.20
2022-11-19T06:04:02.054Z,11.50
2022-11-19T06:06:29.634Z,12.10
2022-11-19T06:08:57.158Z,12.35
2022-11-19T06:11:43.409Z,11.82
2022-11-19T06:14:11.108Z,12.20
2022-11-19T06:16:38.680Z,13.07
2022-11-19T06:19:06.205Z,12.27
2022-11-19T06:21:33.807Z,12.88
2022-11-19T06:24:01.495Z,12.52
2022-11-19T06:26:29.832Z,12.20
2022-11-19T06:28:57.424Z,12.10
2022-11-19T06:31:25.045Z,12.77
2022-11-19T06:33:55.607Z,12.93
2022-11-19T06:36:27.444Z,13.18
2022-11-19T06:38:55.354Z,12.10
2022-11-19T06:41:22.879Z,12.82
2022-11-19T06:43:50.461Z,11.68
2022-11-19T06:46:18.048Z,12.85
2022-11-19T06:48:45.578Z,13.30
2022-11-19T06:51:13.092Z,12.15
2022-11-19T06:53:40.649Z,12.63
2022-11-19T06:56:08.979Z,12.27
2022-11-19T06:58:36.606Z,12.88
2022-11-19T07:01:04.177Z,12.25
2022-11-19T07:03:31.846Z,11.93
2022-11-19T07:06:03.334Z,11.30
2022-11-19T07:08:33.743Z,11.40
2022-11-19T07:11:01.589Z,11.63
2022-11-19T07:13:49.099Z,11.68
2022-11-19T07:16:16.659Z,11.50
2022-11-19T07:18:44.192Z,11.35
2022-11-19T07:21:11.724Z,11.45
2022-11-19T07:23:39.260Z,10.75
2022-11-19T07:26:06.909Z,12.13
2022-11-19T07:28:35.111Z,13.05
2022-11-19T07:31:06.204Z,13.45
2022-11-19T07:33:36.515Z,12.10
2022-11-19T07:36:04.822Z,11.82
2022-11-19T07:38:36.757Z,10.55
2022-11-19T07:41:24.207Z,10.75
2022-11-19T07:43:51.940Z,9.93
2022-11-19T07:46:19.674Z,9.82
2022-11-19T07:48:47.318Z,9.30
2022-11-19T07:51:14.864Z,8.90
2022-11-19T07:53:42.780Z,9.45
2022-11-19T07:56:10.309Z,8.18
2022-11-19T07:58:37.933Z,8.90
2022-11-19T08:01:09.307Z,8.40
2022-11-19T08:03:36.948Z,9.48
2022-11-19T08:06:07.798Z,9.45
2022-11-19T08:08:35.443Z,9.00
2022-11-19T08:11:06.592Z,9.30
2022-11-19T08:13:34.700Z,9.68
2022-11-19T08:16:02.700Z,9.45
2022-11-19T08:18:31.484Z,9.02
2022-11-19T08:21:07.006Z,10.75
2022-11-19T08:23:35.605Z,10.10
2022-11-19T08:26:03.523Z,8.98
2022-11-19T08:28:31.244Z,9.45
2022-11-19T08:31:05.905Z,9.35
2022-11-19T08:33:33.475Z,9.30
2022-11-19T08:36:01.035Z,10.02
2022-11-19T08:38:28.682Z,9.55
2022-11-19T08:41:16.513Z,9.35
2022-11-19T08:43:44.053Z,8.88
2022-11-19T08:46:11.662Z,11.10
2022-11-19T08:48:39.176Z,10.35
2022-11-19T08:51:07.339Z,11.07
2022-11-19T08:53:34.891Z,10.18
2022-11-19T08:56:02.486Z,12.13
2022-11-19T08:58:30.017Z,11.70
2022-11-19T09:00:57.545Z,14.45
2022-11-19T09:03:25.668Z,17.13
2022-11-19T09:06:00.216Z,16.10
2022-11-19T09:08:27.912Z,13.65
2022-11-19T09:10:55.442Z,12.77
2022-11-19T09:13:23.056Z,15.13
2022-11-19T09:15:50.970Z,15.68
2022-11-19T09:18:18.914Z,14.95
2022-11-19T09:20:46.467Z,15.13
2022-11-19T09:23:14.046Z,12.85
2022-11-19T09:25:41.573Z,12.73
2022-11-19T09:28:11.164Z,12.88
2022-11-19T09:30:38.765Z,13.70
2022-11-19T09:33:06.256Z,13.73
2022-11-19T09:35:33.883Z,14.43
2022-11-19T09:38:01.447Z,15.40
2022-11-19T09:40:29.029Z,14.15
2022-11-19T09:43:01.438Z,14.07
2022-11-19T09:45:36.735Z,13.43
2022-11-19T09:48:30.879Z,14.30
2022-11-19T09:51:01.043Z,13.98
2022-11-19T09:53:32.038Z,13.50
2022-11-19T09:56:00.765Z,12.52
2022-11-19T09:58:31.305Z,11.95
2022-11-19T10:00:59.602Z,11.98
2022-11-19T10:03:33.191Z,12.65
2022-11-19T10:06:01.358Z,11.68
2022-11-19T10:08:47.509Z,12.40
2022-11-19T10:11:34.556Z,11.90
2022-11-19T10:14:05.110Z,12.63
2022-11-19T10:16:52.676Z,11.63
2022-11-19T10:19:35.626Z,11.70
2022-11-19T10:22:22.327Z,10.90
2022-11-19T10:27:17.430Z,10.35
2022-11-19T10:29:46.152Z,10.13
2022-11-19T10:32:13.648Z,10.20
2022-11-19T10:34:41.399Z,10.02
2022-11-19T10:37:12.805Z,9.85
2022-11-19T10:39:49.484Z,10.82
2022-11-19T10:42:37.586Z,10.48
2022-11-19T10:45:18.978Z,10.32
2022-11-19T10:47:58.853Z,9.05
2022-11-19T10:50:26.917Z,9.30
2022-11-19T10:53:07.967Z,8.52
2022-11-19T10:55:40.366Z,9.52
2022-11-19T10:58:12.039Z,9.32
2022-11-19T11:00:41.586Z,9.63
2022-11-19T11:03:16.423Z,9.98
2022-11-19T11:05:59.365Z,11.23
2022-11-19T11:08:29.336Z,12.02
2022-11-19T11:10:57.235Z,10.65
2022-11-19T11:13:57.630Z,11.50
2022-11-19T11:16:44.230Z,11.40
2022-11-19T11:19:16.528Z,12.20
2022-11-19T11:21:44.438Z,13.07
2022-11-19T11:24:15.107Z,11.93
2022-11-19T11:26:42.847Z,11.98
2022-11-19T11:29:13.231Z,13.68
2022-11-19T11:31:42.294Z,13.55
2022-11-19T11:34:28.801Z,14.55
2022-11-19T11:36:57.001Z,12.52
2022-11-19T11:39:30.103Z,10.00
2022-11-19T11:42:07.270Z,11.48
2022-11-19T11:44:37.850Z,11.90
2022-11-19T11:47:13.714Z,11.93
2022-11-19T11:49:43.173Z,14.32
2022-11-19T11:52:12.366Z,13.75
2022-11-19T11:55:02.314Z,13.25
2022-11-19T11:57:31.421Z,13.32
2022-11-19T12:00:00.716Z,13.70
2022-11-19T12:02:30.615Z,12.85
2022-11-19T12:05:11.831Z,12.70
2022-11-19T12:07:39.477Z,13.70
2022-11-19T12:10:13.153Z,12.45
2022-11-19T12:12:46.823Z,12.77
2022-11-19T12:15:26.116Z,12.93
2022-11-19T12:17:53.656Z,12.95
2022-11-19T12:20:21.612Z,13.23
2022-11-19T12:23:05.520Z,13.55
2022-11-19T12:25:37.823Z,15.07
2022-11-19T12:28:20.419Z,14.10
2022-11-19T12:30:58.927Z,14.32
2022-11-19T12:33:44.972Z,13.85
2022-11-19T12:36:26.633Z,14.27
2022-11-19T12:38:54.190Z,14.05
2022-11-19T12:41:31.786Z,15.05
2022-11-19T12:44:01.106Z,12.70
2022-11-19T12:46:39.776Z,14.52
2022-11-19T12:49:20.024Z,16.13
2022-11-19T12:51:58.524Z,14.82
2022-11-19T12:54:41.438Z,15.00
2022-11-19T12:57:24.502Z,14.40
2022-11-19T12:59:52.069Z,15.15
2022-11-19T13:02:26.119Z,14.15
2022-11-19T13:04:55.955Z,13.40
2022-11-19T13:07:25.879Z,14.93
2022-11-19T13:09:53.448Z,14.20
2022-11-19T13:12:22.139Z,13.68
2022-11-19T13:14:55.064Z,13.82
2022-11-19T13:17:34.422Z,16.20
2022-11-19T13:20:04.650Z,16.45
2022-11-19T13:22:37.172Z,18.55
2022-11-19T13:25:13.516Z,16.98
2022-11-19T13:27:41.154Z,15.80
2022-11-19T13:30:14.700Z,16.23
2022-11-19T13:32:50.654Z,16.70
2022-11-19T13:35:23.172Z,14.57
2022-11-19T13:37:58.264Z,16.92
2022-11-19T13:40:44.269Z,14.50
2022-11-19T13:43:36.595Z,15.25
2022-11-19T13:46:04.320Z,15.25
2022-11-19T13:48:34.724Z,14.77
2022-11-19T13:51:04.230Z,15.23
2022-11-19T13:53:38.668Z,14.77
2022-11-19T13:56:12.167Z,15.40
2022-11-19T13:58:44.502Z,15.15
2022-11-19T14:01:12.161Z,14.25
2022-11-19T14:03:48.540Z,15.32
2022-11-19T14:06:16.058Z,13.90
2022-11-19T14:08:49.753Z,15.48
2022-11-19T14:11:35.862Z,15.32
2022-11-19T14:14:03.362Z,13.50
2022-11-19T14:16:52.330Z,16.65
2022-11-19T14:19:38.633Z,14.55
2022-11-19T14:22:46.441Z,21.25
2022-11-19T14:25:52.841Z,19.02
2022-11-19T14:28:40.627Z,18.42
2022-11-19T14:31:08.261Z,18.42
2022-11-19T14:34:03.935Z,16.83
2022-11-19T14:36:31.557Z,17.35
2022-11-19T14:39:03.532Z,22.35
2022-11-19T14:41:34.955Z,18.10
2022-11-19T14:44:08.388Z,17.02
2022-11-19T14:46:54.144Z,18.50
2022-11-19T14:49:26.687Z,20.07
2022-11-19T14:51:55.766Z,18.42
2022-11-19T14:54:34.428Z,20.27
2022-11-19T14:57:16.518Z,22.02
2022-11-19T14:59:50.697Z,26.02
2022-11-19T15:02:23.725Z,24.23
2022-11-19T15:04:54.788Z,23.25
2022-11-19T15:07:42.784Z,24.40
2022-11-19T15:10:13.318Z,25.88
2022-11-19T15:12:43.856Z,23.65
2022-11-19T15:15:20.236Z,25.48
2022-11-19T15:17:56.496Z,23.73
2022-11-19T15:20:35.710Z,22.70
2022-11-19T15:23:11.996Z,23.60
2022-11-19T15:28:16.156Z,21.38
2022-11-19T15:31:02.362Z,22.15
2022-11-19T15:33:51.908Z,21.08
2022-11-19T15:36:19.455Z,21.67
2022-11-19T15:38:57.496Z,21.40
2022-11-19T15:41:26.589Z,21.10
2022-11-19T15:43:55.323Z,21.55
2022-11-19T15:46:35.062Z,19.10
2022-11-19T15:49:13.398Z,20.60
2022-11-19T15:51:46.997Z,23.05
2022-11-19T15:54:14.645Z,23.52
2022-11-19T15:56:50.212Z,22.40
2022-11-19T15:59:20.110Z,22.00
2022-11-19T16:01:57.096Z,20.63
2022-11-19T16:04:28.842Z,21.08
2022-11-19T16:06:56.541Z,20.95
2022-11-19T16:09:25.691Z,19.77
2022-11-19T16:12:12.433Z,20.20
2022-11-19T16:17:35.819Z,19.17
2022-11-19T16:20:07.416Z,18.23
2022-11-19T16:22:38.265Z,17.15
2022-11-19T16:25:11.349Z,17.90
2022-11-19T16:27:42.788Z,18.98
2022-11-19T16:30:17.232Z,18.25
2022-11-19T16:32:44.837Z,19.23
2022-11-19T16:35:20.326Z,17.52
2022-11-19T16:37:48.920Z,17.80
2022-11-19T16:40:16.942Z,17.17
2022-11-19T16:42:46.157Z,15.75
2022-11-19T16:45:22.532Z,17.13
2022-11-19T16:47:57.425Z,16.33
2022-11-19T16:50:34.659Z,16.90
2022-11-19T16:53:06.199Z,17.13
2022-11-19T16:55:36.548Z,17.08
2022-11-19T16:58:13.460Z,16.98
2022-11-19T17:00:42.916Z,18.45
2022-11-19T17:03:34.334Z,20.17
2022-11-19T17:06:02.616Z,17.95
2022-11-19T17:08:34.149Z,16.90
2022-11-19T17:11:35.552Z,17.35
2022-11-19T17:14:12.080Z,17.98
2022-11-19T17:16:39.901Z,19.00
2022-11-19T17:19:20.793Z,17.23
2022-11-19T17:21:50.771Z,18.38
2022-11-19T17:24:22.536Z,21.15
2022-11-19T17:26:53.103Z,23.95
2022-11-19T17:29:23.319Z,24.48
2022-11-19T17:31:55.261Z,23.15
2022-11-19T17:34:24.275Z,23.77
2022-11-19T17:36:51.860Z,25.67
2022-11-19T17:39:24.996Z,25.65
2022-11-19T17:42:26.917Z,23.75
2022-11-19T17:44:54.503Z,22.50
2022-11-19T17:47:23.752Z,23.50
2022-11-19T17:49:52.359Z,22.58
2022-11-19T17:52:27.674Z,23.33
2022-11-19T17:54:59.678Z,23.27
2022-11-19T17:57:27.291Z,22.88
2022-11-19T17:59:55.114Z,22.52
2022-11-19T18:02:22.740Z,23.02
2022-11-19T18:04:50.509Z,24.25
2022-11-19T18:07:18.208Z,23.30
2022-11-19T18:09:45.892Z,23.35
2022-11-19T18:12:15.027Z,22.83
2022-11-19T18:14:42.803Z,24.10
2022-11-19T18:17:14.730Z,23.17
2022-11-19T18:19:42.505Z,21.80
2022-11-19T18:22:18.241Z,21.02
2022-11-19T18:24:49.419Z,22.42
2022-11-19T18:27:17.161Z,24.02
2022-11-19T18:29:54.688Z,24.10
2022-11-19T18:32:22.304Z,23.60
2022-11-19T18:35:00.563Z,24.02
2022-11-19T18:37:35.333Z,23.27
2022-11-19T18:40:02.876Z,23.83
2022-11-19T18:42:30.465Z,26.63
2022-11-19T18:44:58.104Z,30.73
2022-11-19T18:47:26.315Z,31.05
2022-11-19T18:49:54.725Z,28.13
2022-11-19T18:52:22.261Z,25.55
2022-11-19T18:54:49.828Z,26.23
2022-11-19T18:57:17.421Z,26.25
2022-11-19T18:59:45.079Z,27.45
2022-11-19T19:02:12.948Z,31.17
2022-11-19T19:04:40.832Z,29.77
2022-11-19T19:07:08.549Z,26.55
2022-11-19T19:09:37.350Z,25.55
2022-11-19T19:12:17.505Z,24.50
2022-11-19T19:14:47.045Z,21.77
2022-11-19T19:17:15.465Z,22.60
2022-11-19T19:19:43.104Z,22.00
2022-11-19T19:22:10.764Z,22.33
2022-11-19T19:24:38.617Z,25.60
2022-11-19T19:27:06.420Z,24.77
2022-11-19T19:29:34.104Z,23.23
2022-11-19T19:32:02.066Z,19.73
2022-11-19T19:34:30.108Z,21.75
2022-11-19T19:36:57.700Z,21.88
2022-11-19T19:39:26.150Z,23.83
2022-11-19T19:41:53.732Z,27.80
2022-11-19T19:44:21.283Z,24.10
2022-11-19T19:46:49.001Z,22.35
2022-11-19T19:49:16.699Z,21.65
2022-11-19T19:51:44.346Z,21.05
2022-11-19T19:54:11.951Z,20.45
2022-11-19T19:56:39.930Z,17.77
2022-11-19T19:59:07.595Z,18.08
2022-11-19T20:01:36.138Z,17.02
2022-11-19T20:04:05.372Z,17.63
2022-11-19T20:06:33.502Z,18.33
2022-11-19T20:09:04.328Z,17.90
2022-11-19T20:11:34.585Z,16.63
2022-11-19T20:14:03.769Z,16.15
2022-11-19T20:16:32.459Z,16.17
2022-11-19T20:19:00.787Z,16.58
2022-11-19T20:21:29.440Z,16.45
2022-11-19T20:23:56.972Z,14.30
2022-11-19T20:26:25.877Z,14.82
2022-11-19T20:28:57.858Z,15.05
2022-11-19T20:31:26.066Z,19.40
2022-11-19T20:33:58.042Z,25.23
2022-11-19T20:36:27.226Z,20.38
2022-11-19T20:38:57.326Z,18.48
2022-11-19T20:41:43.891Z,15.63
2022-11-19T20:44:22.583Z,15.23
2022-11-19T20:46:50.396Z,14.75
2022-11-19T20:49:18.304Z,15.38
2022-11-19T20:51:46.488Z,16.85
2022-11-19T20:54:14.387Z,16.05
2022-11-19T20:56:42.371Z,16.02
2022-11-19T20:59:10.294Z,15.85
2022-11-19T21:01:38.565Z,16.15
2022-11-19T21:04:06.297Z,19.10
2022-11-19T21:06:34.899Z,22.67
2022-11-19T21:09:02.517Z,21.98
2022-11-19T21:11:30.688Z,21.05
2022-11-19T21:13:58.238Z,19.98
2022-11-19T21:16:26.534Z,19.15
2022-11-19T21:18:54.518Z,18.45
2022-11-19T21:21:24.051Z,17.25
2022-11-19T21:23:52.144Z,17.33
2022-11-19T21:26:22.910Z,16.60
2022-11-19T21:28:52.173Z,17.38
2022-11-19T21:31:21.245Z,17.90
2022-11-19T21:33:49.145Z,17.60
2022-11-19T21:36:16.912Z,18.30
2022-11-19T21:38:44.517Z,19.40
2022-11-19T21:41:12.192Z,17.90
2022-11-19T21:43:39.730Z,19.15
2022-11-19T21:46:08.072Z,17.75
2022-11-19T21:48:38.449Z,19.00
2022-11-19T21:51:07.406Z,19.58
2022-11-19T21:53:35.620Z,19.73
2022-11-19T21:56:03.203Z,18.27
2022-11-19T21:58:31.040Z,17.00
2022-11-19T22:00:59.495Z,16.88
2022-11-19T22:03:27.784Z,16.08
2022-11-19T22:05:59.258Z,14.85
2022-11-19T22:08:29.212Z,14.93
2022-11-19T22:10:56.848Z,14.38
2022-11-19T22:13:24.839Z,12.10
2022-11-19T22:15:59.900Z,11.68
2022-11-19T22:18:27.572Z,11.63
2022-11-19T22:21:02.143Z,11.05
2022-11-19T22:23:29.839Z,10.88
2022-11-19T22:25:57.564Z,11.52
2022-11-19T22:28:25.099Z,11.95
2022-11-19T22:30:53.652Z,12.32
2022-11-19T22:33:21.325Z,12.05
2022-11-19T22:35:48.990Z,11.57
2022-11-19T22:38:16.632Z,12.25
2022-11-19T22:40:44.182Z,10.88
2022-11-19T22:43:11.800Z,11.45
2022-11-19T22:45:44.615Z,12.10
2022-11-19T22:48:12.675Z,11.93
2022-11-19T22:50:41.165Z,12.48
2022-11-19T22:53:09.115Z,13.02
2022-11-19T22:55:37.029Z,13.18
2022-11-19T22:58:04.802Z,12.85
2022-11-19T23:00:38.521Z,13.68
2022-11-19T23:03:06.129Z,13.82
2022-11-19T23:05:37.134Z,13.10
2022-11-19T23:08:10.538Z,13.32
2022-11-19T23:10:38.129Z,12.77
2022-11-19T23:13:24.206Z,13.15
2022-11-19T23:16:01.666Z,13.52
2022-11-19T23:18:30.341Z,12.48
2022-11-19T23:20:59.166Z,12.68
2022-11-19T23:23:26.983Z,11.77
2022-11-19T23:25:58.582Z,12.63
2022-11-19T23:28:26.829Z,12.50
2022-11-19T23:30:54.401Z,10.70
2022-11-19T23:33:22.343Z,10.18
2022-11-19T23:35:49.976Z,10.23
2022-11-19T23:38:17.892Z,10.07
2022-11-19T23:40:45.631Z,8.88
2022-11-19T23:43:13.240Z,8.90
2022-11-19T23:45:40.788Z,8.68
2022-11-19T23:48:08.634Z,9.13
2022-11-19T23:50:36.178Z,8.10
2022-11-19T23:53:03.739Z,9.38
2022-11-19T23:55:31.359Z,8.95
2022-11-19T23:57:58.913Z,8.63
